createdAt,value
2019-01-12T00:00:24.104Z,2.57
2019-01-12T00:01:23.908Z,2.67
2019-01-12T00:02:24.121Z,2.72
2019-01-12T00:03:24.111Z,2.69
2019-01-12T00:04:24.073Z,2.72
2019-01-12T00:05:23.560Z,2.67
2019-01-12T00:06:23.551Z,2.6
2019-01-12T00:07:24.037Z,2.56
2019-01-12T00:08:24.033Z,2.65
2019-01-12T00:09:23.757Z,2.65
2019-01-12T00:10:23.778Z,2.6
2019-01-12T00:11:24.000Z,2.62
2019-01-12T00:12:23.978Z,2.65
2019-01-12T00:13:23.776Z,2.54
2019-01-12T00:14:23.720Z,2.6
2019-01-12T00:15:23.952Z,2.56
2019-01-12T00:16:23.735Z,2.6
2019-01-12T00:17:23.917Z,2.67
2019-01-12T00:18:23.659Z,2.64
2019-01-12T00:19:23.660Z,2.67
2019-01-12T00:20:23.398Z,2.53
2019-01-12T00:21:23.894Z,2.65
2019-01-12T00:22:23.611Z,2.72
2019-01-12T00:23:23.604Z,2.68
2019-01-12T00:24:23.603Z,2.77
2019-01-12T00:25:23.829Z,2.69
2019-01-12T00:26:23.823Z,2.77
2019-01-12T00:27:23.810Z,2.67
2019-01-12T00:28:23.559Z,2.74
2019-01-12T00:29:23.808Z,2.75
2019-01-12T00:30:23.536Z,2.71
2019-01-12T00:31:23.827Z,2.75
2019-01-12T00:32:23.529Z,2.72
2019-01-12T00:33:23.767Z,2.71
2019-01-12T00:34:23.484Z,2.75
2019-01-12T00:35:23.765Z,2.64
2019-01-12T00:36:23.724Z,2.6
2019-01-12T00:37:23.705Z,2.68
2019-01-12T00:38:23.450Z,2.68
2019-01-12T00:39:23.433Z,2.65
2019-01-12T00:40:23.426Z,2.65
2019-01-12T00:41:23.431Z,2.67
2019-01-12T00:42:23.408Z,2.62
2019-01-12T00:43:23.636Z,2.62
2019-01-12T00:44:23.620Z,2.62
2019-01-12T00:45:24.436Z,2.61
2019-01-12T00:46:23.372Z,2.68
2019-01-12T00:47:23.363Z,2.68
2019-01-12T00:48:23.351Z,2.71
2019-01-12T00:49:23.596Z,2.67
2019-01-12T00:50:23.321Z,2.68
2019-01-12T00:51:23.061Z,2.72
2019-01-12T00:52:23.291Z,2.69
2019-01-12T00:53:23.039Z,2.77
2019-01-12T00:54:23.039Z,2.79
2019-01-12T00:55:23.505Z,2.85
2019-01-12T00:56:23.250Z,2.83
2019-01-12T00:57:23.230Z,2.89
2019-01-12T00:58:23.246Z,2.85
2019-01-12T00:59:23.470Z,2.92
2019-01-12T01:00:23.458Z,2.77
2019-01-12T01:01:23.463Z,2.86
2019-01-12T01:02:23.434Z,2.83
2019-01-12T01:03:23.437Z,2.85
2019-01-12T01:04:23.160Z,2.9
2019-01-12T01:05:23.397Z,2.79
2019-01-12T01:06:23.406Z,2.85
2019-01-12T01:07:23.401Z,2.82
2019-01-12T01:08:22.905Z,2.82
2019-01-12T01:09:23.362Z,2.9
2019-01-12T01:10:23.352Z,2.83
2019-01-12T01:11:23.093Z,2.9
2019-01-12T01:12:23.318Z,2.92
2019-01-12T01:13:23.078Z,2.9
2019-01-12T01:14:22.796Z,2.9
2019-01-12T01:15:22.789Z,2.9
2019-01-12T01:16:23.280Z,2.93
2019-01-12T01:17:23.274Z,2.95
2019-01-12T01:18:23.010Z,2.87
2019-01-12T01:19:22.991Z,2.98
2019-01-12T01:20:22.983Z,2.89
2019-01-12T01:21:24.253Z,2.92
2019-01-12T01:22:22.973Z,2.79
2019-01-12T01:23:23.209Z,2.86
2019-01-12T01:24:23.184Z,2.8
2019-01-12T01:25:22.940Z,2.85
2019-01-12T01:26:22.670Z,2.8
2019-01-12T01:27:22.908Z,2.83
2019-01-12T01:28:23.160Z,2.86
2019-01-12T01:29:22.940Z,2.85
2019-01-12T01:30:23.141Z,2.82
2019-01-12T01:31:22.898Z,2.85
2019-01-12T01:32:22.849Z,2.77
2019-01-12T01:33:29.896Z,2.8
2019-01-12T01:34:22.838Z,2.74
2019-01-12T01:35:23.081Z,2.72
2019-01-12T01:36:23.084Z,2.68
2019-01-12T01:37:23.052Z,2.72
2019-01-12T01:38:22.790Z,2.82
2019-01-12T01:39:23.076Z,2.75
2019-01-12T01:40:22.796Z,2.83
2019-01-12T01:41:22.751Z,2.86
2019-01-12T01:42:23.010Z,2.86
2019-01-12T01:43:23.005Z,2.85
2019-01-12T01:44:22.733Z,2.83
2019-01-12T01:45:22.979Z,2.86
2019-01-12T01:46:22.700Z,2.8
2019-01-12T01:47:22.969Z,2.72
2019-01-12T01:48:22.959Z,2.72
2019-01-12T01:49:22.920Z,2.71
2019-01-12T01:50:22.673Z,2.67
2019-01-12T01:51:22.476Z,2.69
2019-01-12T01:52:22.647Z,2.75
2019-01-12T01:53:22.617Z,2.74
2019-01-12T01:54:22.861Z,2.77
2019-01-12T01:55:22.857Z,2.82
2019-01-12T01:56:22.611Z,2.71
2019-01-12T01:57:22.854Z,2.82
2019-01-12T01:58:22.575Z,2.8
2019-01-12T01:59:22.802Z,2.89
2019-01-12T02:00:22.796Z,2.77
2019-01-12T02:01:22.528Z,2.83
2019-01-12T02:02:22.767Z,2.75
2019-01-12T02:03:22.520Z,2.86
2019-01-12T02:04:22.755Z,2.8
2019-01-12T02:05:22.281Z,2.86
2019-01-12T02:06:22.479Z,2.9
2019-01-12T02:07:22.469Z,2.85
2019-01-12T02:08:22.769Z,2.9
2019-01-12T02:09:22.694Z,2.9
2019-01-12T02:10:22.444Z,3.03
2019-01-12T02:11:22.670Z,2.92
2019-01-12T02:12:22.660Z,2.9
2019-01-12T02:13:22.651Z,2.83
2019-01-12T02:14:22.406Z,2.93
2019-01-12T02:15:22.140Z,2.86
2019-01-12T02:16:22.378Z,2.85
2019-01-12T02:17:22.640Z,2.97
2019-01-12T02:18:22.369Z,2.85
2019-01-12T02:19:22.340Z,2.89
2019-01-12T02:20:23.210Z,2.89
2019-01-12T02:21:22.320Z,3
2019-01-12T02:22:22.569Z,2.95
2019-01-12T02:23:22.292Z,3
2019-01-12T02:24:22.288Z,2.9
2019-01-12T02:25:22.054Z,2.89
2019-01-12T02:26:22.277Z,2.97
2019-01-12T02:27:22.260Z,2.93
2019-01-12T02:28:22.491Z,2.93
2019-01-12T02:29:22.241Z,3
2019-01-12T02:30:22.542Z,2.87
2019-01-12T02:31:22.455Z,2.98
2019-01-12T02:32:22.205Z,2.97
2019-01-12T02:33:22.192Z,3.01
2019-01-12T02:34:22.043Z,2.86
2019-01-12T02:35:22.185Z,2.92
2019-01-12T02:36:22.164Z,2.87
2019-01-12T02:37:22.179Z,2.92
2019-01-12T02:38:22.150Z,2.9
2019-01-12T02:39:22.149Z,2.89
2019-01-12T02:40:22.365Z,2.9
2019-01-12T02:41:22.352Z,2.92
2019-01-12T02:42:22.342Z,2.85
2019-01-12T02:43:22.098Z,3.01
2019-01-12T02:44:22.337Z,2.9
2019-01-12T02:45:22.331Z,2.97
2019-01-12T02:46:22.082Z,3.11
2019-01-12T02:47:22.074Z,3.21
2019-01-12T02:48:21.957Z,3.07
2019-01-12T02:49:22.274Z,3.11
2019-01-12T02:50:21.755Z,3.13
2019-01-12T02:51:22.302Z,3.14
2019-01-12T02:52:21.990Z,3.18
2019-01-12T02:53:22.004Z,3.07
2019-01-12T02:54:22.225Z,3.14
2019-01-12T02:55:22.022Z,3.13
2019-01-12T02:56:21.960Z,3.16
2019-01-12T02:57:21.957Z,3.1
2019-01-12T02:58:23.039Z,3.07
2019-01-12T02:59:21.960Z,2.95
2019-01-12T03:00:21.794Z,3.04
2019-01-12T03:01:21.904Z,3
2019-01-12T03:02:21.898Z,3.1
2019-01-12T03:03:21.886Z,3.11
2019-01-12T03:04:22.123Z,3.1
2019-01-12T03:05:22.113Z,3.1
2019-01-12T03:06:21.620Z,3.13
2019-01-12T03:07:21.865Z,3.11
2019-01-12T03:08:22.090Z,3.11
2019-01-12T03:09:21.553Z,3.23
2019-01-12T03:10:21.800Z,3.22
2019-01-12T03:11:21.789Z,3.21
2019-01-12T03:12:21.772Z,3.26
2019-01-12T03:13:22.057Z,3.22
2019-01-12T03:14:22.018Z,3.21
2019-01-12T03:15:22.044Z,3.21
2019-01-12T03:16:22.039Z,3.23
2019-01-12T03:17:21.979Z,3.28
2019-01-12T03:18:21.711Z,3.25
2019-01-12T03:19:21.466Z,3.28
2019-01-12T03:20:21.961Z,3.28
2019-01-12T03:21:21.419Z,3.25
2019-01-12T03:22:21.663Z,3.22
2019-01-12T03:23:21.910Z,3.25
2019-01-12T03:24:21.644Z,3.28
2019-01-12T03:25:23.919Z,3.31
2019-01-12T03:26:21.636Z,3.23
2019-01-12T03:27:21.682Z,3.32
2019-01-12T03:28:21.613Z,3.25
2019-01-12T03:29:21.893Z,3.26
2019-01-12T03:30:21.372Z,3.11
2019-01-12T03:31:21.846Z,3.11
2019-01-12T03:32:21.564Z,3.16
2019-01-12T03:33:21.816Z,3.11
2019-01-12T03:34:21.534Z,3.14
2019-01-12T03:35:21.594Z,3.21
2019-01-12T03:36:21.792Z,3.13
2019-01-12T03:37:21.758Z,3.14
2019-01-12T03:38:21.771Z,3.26
2019-01-12T03:39:21.481Z,3.14
2019-01-12T03:40:21.467Z,3.21
2019-01-12T03:41:21.731Z,3.26
2019-01-12T03:42:21.708Z,3.22
2019-01-12T03:43:21.442Z,3.19
2019-01-12T03:44:21.685Z,3.22
2019-01-12T03:45:21.422Z,3.25
2019-01-12T03:46:21.213Z,3.22
2019-01-12T03:47:21.257Z,3.32
2019-01-12T03:48:21.387Z,3.22
2019-01-12T03:49:21.370Z,3.25
2019-01-12T03:50:21.474Z,3.28
2019-01-12T03:51:21.119Z,3.26
2019-01-12T03:52:21.339Z,3.23
2019-01-12T03:53:21.365Z,3.31
2019-01-12T03:54:21.610Z,3.23
2019-01-12T03:55:28.232Z,3.26
2019-01-12T03:56:21.301Z,3.22
2019-01-12T03:57:21.298Z,3.23
2019-01-12T03:58:21.537Z,3.21
2019-01-12T03:59:21.285Z,3.21
2019-01-12T04:00:21.511Z,3.23
2019-01-12T04:01:21.246Z,3.23
2019-01-12T04:02:21.238Z,3.26
2019-01-12T04:03:21.235Z,3.26
2019-01-12T04:04:21.469Z,3.28
2019-01-12T04:05:21.528Z,3.28
2019-01-12T04:06:21.458Z,3.4
2019-01-12T04:07:21.469Z,3.37
2019-01-12T04:08:21.188Z,3.42
2019-01-12T04:09:21.415Z,3.45
2019-01-12T04:10:21.179Z,3.47
2019-01-12T04:11:21.410Z,3.37
2019-01-12T04:12:21.131Z,3.28
2019-01-12T04:13:21.136Z,3.4
2019-01-12T04:14:21.377Z,3.4
2019-01-12T04:15:21.357Z,3.4
2019-01-12T04:16:21.088Z,3.37
2019-01-12T04:17:20.837Z,3.4
2019-01-12T04:18:21.092Z,3.41
2019-01-12T04:19:21.083Z,3.42
2019-01-12T04:20:21.297Z,3.4
2019-01-12T04:21:20.787Z,3.42
2019-01-12T04:22:20.818Z,3.32
2019-01-12T04:23:21.008Z,3.31
2019-01-12T04:24:21.252Z,3.4
2019-01-12T04:25:20.999Z,3.34
2019-01-12T04:26:21.229Z,3.28
2019-01-12T04:27:21.250Z,3.42
2019-01-12T04:28:21.005Z,3.36
2019-01-12T04:29:21.216Z,3.34
2019-01-12T04:30:20.944Z,3.34
2019-01-12T04:31:21.187Z,3.37
2019-01-12T04:32:21.201Z,3.28
2019-01-12T04:33:20.668Z,3.22
2019-01-12T04:34:20.917Z,3.23
2019-01-12T04:35:21.151Z,3.29
2019-01-12T04:36:21.139Z,3.36
2019-01-12T04:37:21.122Z,3.36
2019-01-12T04:38:21.110Z,3.37
2019-01-12T04:39:21.116Z,3.47
2019-01-12T04:40:21.210Z,3.45
2019-01-12T04:41:21.102Z,3.34
2019-01-12T04:42:21.112Z,3.48
2019-01-12T04:43:21.130Z,3.45
2019-01-12T04:44:20.824Z,3.48
2019-01-12T04:45:21.034Z,3.55
2019-01-12T04:46:21.020Z,3.5
2019-01-12T04:47:21.027Z,3.56
2019-01-12T04:48:21.902Z,3.5
2019-01-12T04:49:20.761Z,3.62
2019-01-12T04:50:20.740Z,3.56
2019-01-12T04:51:20.966Z,3.47
2019-01-12T04:52:20.973Z,3.53
2019-01-12T04:53:20.947Z,3.59
2019-01-12T04:54:20.752Z,3.58
2019-01-12T04:55:20.961Z,3.53
2019-01-12T04:56:20.949Z,3.58
2019-01-12T04:57:20.699Z,3.56
2019-01-12T04:58:20.659Z,3.65
2019-01-12T04:59:20.650Z,3.63
2019-01-12T05:00:20.645Z,3.58
2019-01-12T05:01:20.647Z,3.65
2019-01-12T05:02:20.614Z,3.56
2019-01-12T05:03:20.864Z,3.62
2019-01-12T05:04:20.605Z,3.68
2019-01-12T05:05:20.857Z,3.68
2019-01-12T05:06:20.570Z,3.68
2019-01-12T05:07:20.811Z,3.63
2019-01-12T05:08:20.809Z,3.68
2019-01-12T05:09:20.571Z,3.65
2019-01-12T05:10:20.912Z,3.74
2019-01-12T05:11:20.784Z,3.62
2019-01-12T05:12:20.517Z,3.59
2019-01-12T05:13:20.511Z,3.59
2019-01-12T05:14:20.791Z,3.59
2019-01-12T05:15:20.749Z,3.62
2019-01-12T05:16:20.512Z,3.59
2019-01-12T05:17:20.472Z,3.62
2019-01-12T05:18:20.716Z,3.65
2019-01-12T05:19:20.712Z,3.66
2019-01-12T05:20:20.448Z,3.62
2019-01-12T05:21:20.196Z,3.62
2019-01-12T05:22:20.420Z,3.63
2019-01-12T05:23:20.418Z,3.65
2019-01-12T05:24:20.418Z,3.62
2019-01-12T05:25:20.461Z,3.59
2019-01-12T05:26:20.392Z,3.6
2019-01-12T05:27:20.619Z,3.59
2019-01-12T05:28:20.368Z,3.56
2019-01-12T05:29:20.366Z,3.56
2019-01-12T05:30:21.729Z,3.65
2019-01-12T05:31:20.368Z,3.55
2019-01-12T05:32:20.555Z,3.62
2019-01-12T05:33:20.588Z,3.6
2019-01-12T05:34:20.551Z,3.65
2019-01-12T05:35:20.289Z,3.58
2019-01-12T05:36:20.543Z,3.62
2019-01-12T05:37:20.607Z,3.56
2019-01-12T05:38:20.266Z,3.6
2019-01-12T05:39:20.267Z,3.6
2019-01-12T05:40:19.980Z,3.59
2019-01-12T05:41:20.507Z,3.58
2019-01-12T05:42:19.957Z,3.59
2019-01-12T05:43:20.572Z,3.6
2019-01-12T05:44:20.498Z,3.66
2019-01-12T05:45:20.454Z,3.58
2019-01-12T05:46:20.423Z,3.63
2019-01-12T05:47:20.404Z,3.6
2019-01-12T05:48:20.409Z,3.62
2019-01-12T05:49:20.173Z,3.6
2019-01-12T05:50:20.458Z,3.51
2019-01-12T05:51:20.146Z,3.51
2019-01-12T05:52:20.126Z,3.6
2019-01-12T05:53:20.368Z,3.56
2019-01-12T05:54:20.378Z,3.55
2019-01-12T05:55:20.337Z,3.58
2019-01-12T05:56:20.349Z,3.58
2019-01-12T05:57:20.066Z,3.63
2019-01-12T05:58:20.313Z,3.58
2019-01-12T05:59:20.032Z,3.62
2019-01-12T06:00:20.265Z,3.6
2019-01-12T06:01:20.296Z,3.59
2019-01-12T06:02:20.250Z,3.56
2019-01-12T06:03:20.283Z,3.6
2019-01-12T06:04:20.300Z,3.6
2019-01-12T06:05:19.988Z,3.58
2019-01-12T06:06:20.216Z,3.66
2019-01-12T06:07:19.945Z,3.62
2019-01-12T06:08:20.195Z,3.65
2019-01-12T06:09:19.941Z,3.63
2019-01-12T06:10:20.169Z,3.63
2019-01-12T06:11:19.940Z,3.59
2019-01-12T06:12:20.169Z,3.63
2019-01-12T06:13:19.914Z,3.59
2019-01-12T06:14:20.131Z,3.62
2019-01-12T06:15:19.892Z,3.62
2019-01-12T06:16:19.890Z,3.59
2019-01-12T06:17:19.853Z,3.62
2019-01-12T06:18:20.104Z,3.6
2019-01-12T06:19:20.091Z,3.62
2019-01-12T06:20:19.582Z,3.63
2019-01-12T06:21:19.814Z,3.63
2019-01-12T06:22:19.811Z,3.65
2019-01-12T06:23:19.814Z,3.62
2019-01-12T06:24:19.541Z,3.65
2019-01-12T06:25:19.784Z,3.6
2019-01-12T06:26:19.532Z,3.62
2019-01-12T06:27:19.501Z,3.59
2019-01-12T06:28:19.741Z,3.6
2019-01-12T06:29:20.003Z,3.7
2019-01-12T06:30:19.972Z,3.62
2019-01-12T06:31:19.979Z,3.66
2019-01-12T06:32:19.943Z,3.63
2019-01-12T06:33:19.916Z,3.7
2019-01-12T06:34:19.943Z,3.68
2019-01-12T06:35:19.674Z,3.7
2019-01-12T06:36:19.928Z,3.74
2019-01-12T06:37:19.916Z,3.74
2019-01-12T06:38:19.879Z,3.7
2019-01-12T06:39:19.882Z,3.78
2019-01-12T06:40:19.874Z,3.74
2019-01-12T06:41:19.634Z,3.81
2019-01-12T06:42:19.348Z,3.8
2019-01-12T06:43:19.600Z,3.78
2019-01-12T06:44:19.397Z,3.74
2019-01-12T06:45:19.819Z,3.73
2019-01-12T06:46:19.811Z,3.74
2019-01-12T06:47:19.798Z,3.69
2019-01-12T06:48:19.798Z,3.78
2019-01-12T06:49:19.527Z,3.69
2019-01-12T06:50:19.514Z,3.76
2019-01-12T06:51:19.525Z,3.74
2019-01-12T06:52:19.739Z,3.76
2019-01-12T06:53:19.498Z,3.77
2019-01-12T06:54:19.472Z,3.74
2019-01-12T06:55:19.724Z,3.74
2019-01-12T06:56:19.723Z,3.77
2019-01-12T06:57:19.688Z,3.73
2019-01-12T06:58:19.687Z,3.76
2019-01-12T06:59:19.692Z,3.83
2019-01-12T07:00:19.426Z,3.77
2019-01-12T07:01:19.427Z,3.81
2019-01-12T07:02:19.392Z,3.8
2019-01-12T07:03:19.642Z,3.83
2019-01-12T07:04:19.640Z,3.98
2019-01-12T07:05:19.635Z,3.95
2019-01-12T07:06:19.389Z,4.05
2019-01-12T07:07:19.355Z,4.06
2019-01-12T07:08:19.591Z,4.05
2019-01-12T07:09:19.586Z,4.14
2019-01-12T07:10:19.570Z,4.23
2019-01-12T07:11:19.572Z,4.16
2019-01-12T07:12:19.299Z,4.19
2019-01-12T07:13:19.292Z,4.19
2019-01-12T07:14:19.520Z,4.14
2019-01-12T07:15:19.521Z,4.31
2019-01-12T07:16:19.503Z,4.28
2019-01-12T07:17:19.256Z,4.26
2019-01-12T07:18:18.998Z,4.34
2019-01-12T07:19:19.485Z,4.31
2019-01-12T07:20:19.217Z,4.3
2019-01-12T07:21:19.208Z,4.37
2019-01-12T07:22:19.451Z,4.35
2019-01-12T07:23:19.198Z,4.37
2019-01-12T07:24:18.926Z,4.37
2019-01-12T07:25:19.172Z,4.41
2019-01-12T07:26:22.304Z,4.37
2019-01-12T07:27:19.385Z,4.4
2019-01-12T07:28:19.386Z,4.4
2019-01-12T07:29:19.137Z,4.44
2019-01-12T07:30:19.117Z,4.38
2019-01-12T07:31:19.101Z,4.48
2019-01-12T07:32:19.099Z,4.44
2019-01-12T07:33:19.361Z,4.48
2019-01-12T07:34:19.378Z,4.48
2019-01-12T07:35:19.319Z,4.56
2019-01-12T07:36:19.306Z,4.52
2019-01-12T07:37:19.288Z,4.5
2019-01-12T07:38:19.282Z,4.55
2019-01-12T07:39:19.037Z,4.55
2019-01-12T07:40:19.068Z,4.56
2019-01-12T07:41:19.007Z,4.52
2019-01-12T07:42:19.243Z,4.63
2019-01-12T07:43:19.247Z,4.55
2019-01-12T07:44:18.990Z,4.56
2019-01-12T07:45:19.225Z,4.59
2019-01-12T07:46:19.211Z,4.63
2019-01-12T07:47:18.960Z,4.56
2019-01-12T07:48:18.960Z,4.63
2019-01-12T07:49:18.929Z,4.63
2019-01-12T07:50:18.918Z,4.71
2019-01-12T07:51:19.160Z,4.63
2019-01-12T07:52:18.662Z,4.6
2019-01-12T07:53:18.953Z,4.73
2019-01-12T07:54:19.139Z,4.74
2019-01-12T07:55:18.686Z,4.68
2019-01-12T07:56:24.345Z,4.75
2019-01-12T07:57:18.864Z,4.71
2019-01-12T07:58:19.103Z,4.63
2019-01-12T07:59:18.837Z,4.68
2019-01-12T08:00:18.837Z,4.7
2019-01-12T08:01:18.569Z,4.77
2019-01-12T08:02:18.806Z,4.7
2019-01-12T08:03:18.561Z,4.73
2019-01-12T08:04:19.055Z,4.82
2019-01-12T08:05:18.545Z,4.77
2019-01-12T08:06:18.780Z,4.77
2019-01-12T08:07:19.014Z,4.8
2019-01-12T08:08:18.774Z,4.86
2019-01-12T08:09:19.797Z,4.74
2019-01-12T08:10:18.988Z,4.73
2019-01-12T08:11:18.729Z,4.8
2019-01-12T08:12:18.750Z,4.87
2019-01-12T08:13:18.499Z,4.82
2019-01-12T08:14:18.473Z,4.86
2019-01-12T08:15:18.953Z,4.96
2019-01-12T08:16:18.698Z,4.78
2019-01-12T08:17:18.741Z,4.92
2019-01-12T08:18:18.664Z,4.84
2019-01-12T08:19:18.699Z,4.93
2019-01-12T08:20:18.891Z,4.87
2019-01-12T08:21:18.411Z,4.89
2019-01-12T08:22:18.645Z,4.87
2019-01-12T08:23:18.886Z,4.84
2019-01-12T08:24:18.617Z,4.93
2019-01-12T08:25:18.858Z,4.77
2019-01-12T08:26:18.593Z,4.94
2019-01-12T08:27:18.828Z,4.94
2019-01-12T08:28:18.582Z,4.99
2019-01-12T08:29:18.559Z,5
2019-01-12T08:30:18.799Z,5
2019-01-12T08:31:19.332Z,4.96
2019-01-12T08:32:18.800Z,4.96
2019-01-12T08:33:18.534Z,5.02
2019-01-12T08:34:18.799Z,4.97
2019-01-12T08:35:18.255Z,4.99
2019-01-12T08:36:19.603Z,4.93
2019-01-12T08:37:18.511Z,4.96
2019-01-12T08:38:18.461Z,4.93
2019-01-12T08:39:18.708Z,4.94
2019-01-12T08:40:18.705Z,4.86
2019-01-12T08:41:18.215Z,4.89
2019-01-12T08:42:18.684Z,4.87
2019-01-12T08:43:18.440Z,4.9
2019-01-12T08:44:18.424Z,4.96
2019-01-12T08:45:18.437Z,4.99
2019-01-12T08:46:18.178Z,4.89
2019-01-12T08:47:18.443Z,4.87
2019-01-12T08:48:18.392Z,4.92
2019-01-12T08:49:18.374Z,4.9
2019-01-12T08:50:18.618Z,4.96
2019-01-12T08:51:18.363Z,4.96
2019-01-12T08:52:18.593Z,4.97
2019-01-12T08:53:18.582Z,4.96
2019-01-12T08:54:18.321Z,4.94
2019-01-12T08:55:18.570Z,4.9
2019-01-12T08:56:18.321Z,4.97
2019-01-12T08:57:18.550Z,4.87
2019-01-12T08:58:18.564Z,4.87
2019-01-12T08:59:18.282Z,4.86
2019-01-12T09:00:18.267Z,4.94
2019-01-12T09:01:18.290Z,4.97
2019-01-12T09:02:18.260Z,4.99
2019-01-12T09:03:18.003Z,5.04
2019-01-12T09:04:18.510Z,5.04
2019-01-12T09:05:18.226Z,5.05
2019-01-12T09:06:18.221Z,5.12
2019-01-12T09:07:18.223Z,5.14
2019-01-12T09:08:17.975Z,5.15
2019-01-12T09:09:18.216Z,5.2
2019-01-12T09:10:19.619Z,5.14
2019-01-12T09:11:18.199Z,5.17
2019-01-12T09:12:18.400Z,5.18
2019-01-12T09:13:18.408Z,5.17
2019-01-12T09:14:18.144Z,5.11
2019-01-12T09:15:18.441Z,5.18
2019-01-12T09:16:18.388Z,5.17
2019-01-12T09:17:17.866Z,5.3
2019-01-12T09:18:18.123Z,5.28
2019-01-12T09:19:17.853Z,5.25
2019-01-12T09:20:17.847Z,5.3
2019-01-12T09:21:18.364Z,5.25
2019-01-12T09:22:18.071Z,5.26
2019-01-12T09:23:18.316Z,5.28
2019-01-12T09:24:18.300Z,5.35
2019-01-12T09:25:18.287Z,5.3
2019-01-12T09:26:18.036Z,5.3
2019-01-12T09:27:18.045Z,5.3
2019-01-12T09:28:17.812Z,5.35
2019-01-12T09:29:18.287Z,5.3
2019-01-12T09:30:18.267Z,5.33
2019-01-12T09:31:18.020Z,5.3
2019-01-12T09:32:18.010Z,5.28
2019-01-12T09:33:17.727Z,5.32
2019-01-12T09:34:18.229Z,5.3
2019-01-12T09:35:18.203Z,5.3
2019-01-12T09:36:17.959Z,5.3
2019-01-12T09:37:17.947Z,5.29
2019-01-12T09:38:17.944Z,5.38
2019-01-12T09:39:17.919Z,5.28
2019-01-12T09:40:18.174Z,5.32
2019-01-12T09:41:17.911Z,5.29
2019-01-12T09:42:18.141Z,5.32
2019-01-12T09:43:17.647Z,5.28
2019-01-12T09:44:17.876Z,5.29
2019-01-12T09:45:18.117Z,5.33
2019-01-12T09:46:17.872Z,5.29
2019-01-12T09:47:18.110Z,5.26
2019-01-12T09:48:17.839Z,5.18
2019-01-12T09:49:18.080Z,5.18
2019-01-12T09:50:17.836Z,5.23
2019-01-12T09:51:18.090Z,5.14
2019-01-12T09:52:17.806Z,5.32
2019-01-12T09:53:18.055Z,5.32
2019-01-12T09:54:18.053Z,5.21
2019-01-12T09:55:17.787Z,5.28
2019-01-12T09:56:17.815Z,5.23
2019-01-12T09:57:17.752Z,5.2
2019-01-12T09:58:17.990Z,5.23
2019-01-12T09:59:18.003Z,5.18
2019-01-12T10:00:17.740Z,5.1
2019-01-12T10:01:17.985Z,5.12
2019-01-12T10:02:17.968Z,5.12
2019-01-12T10:03:17.945Z,5.23
2019-01-12T10:04:17.952Z,5.26
2019-01-12T10:05:17.695Z,5.25
2019-01-12T10:06:17.690Z,5.21
2019-01-12T10:07:17.917Z,5.21
2019-01-12T10:08:17.918Z,5.3
2019-01-12T10:09:17.902Z,5.38
2019-01-12T10:10:17.906Z,5.41
2019-01-12T10:11:17.950Z,5.28
2019-01-12T10:12:17.637Z,5.5
2019-01-12T10:13:17.629Z,5.46
2019-01-12T10:14:17.851Z,5.44
2019-01-12T10:15:17.851Z,5.5
2019-01-12T10:16:17.595Z,5.41
2019-01-12T10:17:17.344Z,5.39
2019-01-12T10:18:17.350Z,5.41
2019-01-12T10:19:17.828Z,5.46
2019-01-12T10:20:17.310Z,5.47
2019-01-12T10:21:17.385Z,5.39
2019-01-12T10:22:17.969Z,5.41
2019-01-12T10:23:17.281Z,5.43
2019-01-12T10:24:17.526Z,5.35
2019-01-12T10:25:17.777Z,5.36
2019-01-12T10:26:17.523Z,5.38
2019-01-12T10:27:17.297Z,5.41
2019-01-12T10:28:17.490Z,5.35
2019-01-12T10:29:17.474Z,5.38
2019-01-12T10:30:17.219Z,5.36
2019-01-12T10:31:17.490Z,5.26
2019-01-12T10:32:17.704Z,5.3
2019-01-12T10:33:17.467Z,5.36
2019-01-12T10:34:17.734Z,5.32
2019-01-12T10:35:17.456Z,5.3
2019-01-12T10:36:17.440Z,5.28
2019-01-12T10:37:17.418Z,5.32
2019-01-12T10:38:17.654Z,5.36
2019-01-12T10:39:22.722Z,5.39
2019-01-12T10:40:17.209Z,5.39
2019-01-12T10:41:17.148Z,5.43
2019-01-12T10:42:17.619Z,5.41
2019-01-12T10:43:17.360Z,5.41
2019-01-12T10:44:17.611Z,5.47
2019-01-12T10:45:17.357Z,5.47
2019-01-12T10:46:17.337Z,5.46
2019-01-12T10:47:17.443Z,5.46
2019-01-12T10:48:17.331Z,5.54
2019-01-12T10:49:17.338Z,5.59
2019-01-12T10:50:17.552Z,5.54
2019-01-12T10:51:17.593Z,5.53
2019-01-12T10:52:17.293Z,5.53
2019-01-12T10:53:17.538Z,5.44
2019-01-12T10:54:17.277Z,5.48
2019-01-12T10:55:17.531Z,5.43
2019-01-12T10:56:17.497Z,5.51
2019-01-12T10:57:17.494Z,5.46
2019-01-12T10:58:17.229Z,5.48
2019-01-12T10:59:17.235Z,5.47
2019-01-12T11:00:17.467Z,5.51
2019-01-12T11:01:17.222Z,5.47
2019-01-12T11:02:17.307Z,5.47
2019-01-12T11:03:17.440Z,5.51
2019-01-12T11:04:16.937Z,5.51
2019-01-12T11:05:17.440Z,5.61
2019-01-12T11:06:16.924Z,5.54
2019-01-12T11:07:17.169Z,5.47
2019-01-12T11:08:17.160Z,5.47
2019-01-12T11:09:17.149Z,5.47
2019-01-12T11:10:17.155Z,5.53
2019-01-12T11:11:17.366Z,5.47
2019-01-12T11:12:17.104Z,5.43
2019-01-12T11:13:17.158Z,5.44
2019-01-12T11:14:17.093Z,5.41
2019-01-12T11:15:17.340Z,5.41
2019-01-12T11:16:17.332Z,5.43
2019-01-12T11:17:17.069Z,5.43
2019-01-12T11:18:16.822Z,5.43
2019-01-12T11:19:17.048Z,5.35
2019-01-12T11:20:16.803Z,5.35
2019-01-12T11:21:16.789Z,5.41
2019-01-12T11:22:17.271Z,5.41
2019-01-12T11:23:16.771Z,5.41
2019-01-12T11:24:16.771Z,5.36
2019-01-12T11:25:17.251Z,5.32
2019-01-12T11:26:16.991Z,5.43
2019-01-12T11:27:17.316Z,5.32
2019-01-12T11:28:16.980Z,5.36
2019-01-12T11:29:17.243Z,5.3
2019-01-12T11:30:16.960Z,5.29
2019-01-12T11:31:22.037Z,5.28
2019-01-12T11:32:16.949Z,5.32
2019-01-12T11:33:16.935Z,5.29
2019-01-12T11:34:16.928Z,5.29
2019-01-12T11:35:16.910Z,5.41
2019-01-12T11:36:17.171Z,5.38
2019-01-12T11:37:17.156Z,5.39
2019-01-12T11:38:17.139Z,5.43
2019-01-12T11:39:17.136Z,5.33
2019-01-12T11:40:17.673Z,5.29
2019-01-12T11:41:16.636Z,5.3
2019-01-12T11:42:16.851Z,5.33
2019-01-12T11:43:16.850Z,5.23
2019-01-12T11:44:17.076Z,5.29
2019-01-12T11:45:17.079Z,5.29
2019-01-12T11:46:17.067Z,5.29
2019-01-12T11:47:16.560Z,5.25
2019-01-12T11:48:17.060Z,5.26
2019-01-12T11:49:16.783Z,5.28
2019-01-12T11:50:16.818Z,5.29
2019-01-12T11:51:16.786Z,5.32
2019-01-12T11:52:16.783Z,5.38
2019-01-12T11:53:16.763Z,5.38
2019-01-12T11:54:16.989Z,5.28
2019-01-12T11:55:17.033Z,5.3
2019-01-12T11:56:16.993Z,5.35
2019-01-12T11:57:23.839Z,5.26
2019-01-12T11:58:16.704Z,5.32
2019-01-12T11:59:16.980Z,5.28
2019-01-12T12:00:16.676Z,5.28
2019-01-12T12:01:16.683Z,5.29
2019-01-12T12:02:16.915Z,5.41
2019-01-12T12:03:16.665Z,5.28
2019-01-12T12:04:16.647Z,5.29
2019-01-12T12:05:17.295Z,5.33
2019-01-12T12:06:16.898Z,5.3
2019-01-12T12:07:16.624Z,5.43
2019-01-12T12:08:16.357Z,5.43
2019-01-12T12:09:16.842Z,5.43
2019-01-12T12:10:16.405Z,5.43
2019-01-12T12:11:16.588Z,5.38
2019-01-12T12:12:16.324Z,5.48
2019-01-12T12:13:16.566Z,5.46
2019-01-12T12:14:16.802Z,5.56
2019-01-12T12:15:16.566Z,5.5
2019-01-12T12:16:16.590Z,5.5
2019-01-12T12:17:16.529Z,5.53
2019-01-12T12:18:16.768Z,5.48
2019-01-12T12:19:16.776Z,5.57
2019-01-12T12:20:16.268Z,5.61
2019-01-12T12:21:16.260Z,5.57
2019-01-12T12:22:16.254Z,5.59
2019-01-12T12:23:16.242Z,5.59
2019-01-12T12:24:16.464Z,5.68
2019-01-12T12:25:16.470Z,5.64
2019-01-12T12:26:16.216Z,5.75
2019-01-12T12:27:16.459Z,5.69
2019-01-12T12:28:16.188Z,5.62
2019-01-12T12:29:16.667Z,5.61
2019-01-12T12:30:16.438Z,5.57
2019-01-12T12:31:16.410Z,5.66
2019-01-12T12:32:16.671Z,5.66
2019-01-12T12:33:16.641Z,5.69
2019-01-12T12:34:16.406Z,5.64
2019-01-12T12:35:16.375Z,5.69
2019-01-12T12:36:16.364Z,5.68
2019-01-12T12:37:16.615Z,5.66
2019-01-12T12:38:16.598Z,5.65
2019-01-12T12:39:16.088Z,5.68
2019-01-12T12:40:16.586Z,5.72
2019-01-12T12:41:16.320Z,5.69
2019-01-12T12:42:16.080Z,5.71
2019-01-12T12:43:16.331Z,5.64
2019-01-12T12:44:16.302Z,5.62
2019-01-12T12:45:16.291Z,5.5
2019-01-12T12:46:16.269Z,5.56
2019-01-12T12:47:16.512Z,5.57
2019-01-12T12:48:16.272Z,5.51
2019-01-12T12:49:16.514Z,5.48
2019-01-12T12:50:16.235Z,5.46
2019-01-12T12:51:16.513Z,5.41
2019-01-12T12:52:16.481Z,5.44
2019-01-12T12:53:16.475Z,5.47
2019-01-12T12:54:16.213Z,5.51
2019-01-12T12:55:16.446Z,5.47
2019-01-12T12:56:16.449Z,5.48
2019-01-12T12:57:16.430Z,5.46
2019-01-12T12:58:16.178Z,5.54
2019-01-12T12:59:16.415Z,5.53
2019-01-12T13:00:16.160Z,5.47
2019-01-12T13:01:16.207Z,5.47
2019-01-12T13:02:15.888Z,5.48
2019-01-12T13:03:16.391Z,5.51
2019-01-12T13:04:16.369Z,5.5
2019-01-12T13:05:16.362Z,5.57
2019-01-12T13:06:16.397Z,5.56
2019-01-12T13:07:16.343Z,5.61
2019-01-12T13:08:16.082Z,5.59
2019-01-12T13:09:16.335Z,5.56
2019-01-12T13:10:16.068Z,5.62
2019-01-12T13:11:16.306Z,5.66
2019-01-12T13:12:16.309Z,5.65
2019-01-12T13:13:16.285Z,5.79
2019-01-12T13:14:15.778Z,5.89
2019-01-12T13:15:16.269Z,5.83
2019-01-12T13:16:16.264Z,5.72
2019-01-12T13:17:16.275Z,5.71
2019-01-12T13:18:16.247Z,5.72
2019-01-12T13:19:16.019Z,5.68
2019-01-12T13:20:16.237Z,5.64
2019-01-12T13:21:16.235Z,5.59
2019-01-12T13:22:15.989Z,5.53